Meath Environmental Platform

Observations for Trim Patrick St

Time AQI Temp °C Hum % Pres Pa CO μg/m³ H₂S μg/m³ NO μg/m³ NO₂ μg/m³ O₃ μg/m³ SO₂ μg/m³ PM1 μg/m³ PM2.5 μg/m³ PM10 μg/m³
Sunday 2 August 2026
12:39 2 26.7 38 69,043 0 0 1.48 12.31 73.9 8.65 2.86 9.53 10.48
12:38 2 26.7 39 69,053 0 0 1.52 20.89 103.91 9.53 2.86 8.65 9.52
12:37 2 26.7 39 69,041 0 0 1.5 13.61 71.06 8.69 2.86 9.47 10.41
12:36 2 26.7 39 69,057 0 0 1.43 15.29 85.57 9.13 2 7.89 8.68
12:35 2 26.7 38 69,043 0 0 1.47 18.09 80.94 7.24 2.86 8.73 9.6
12:34 2 26.6 40 69,051 0 3.6 1.51 17.46 82.32 10.31 2.86 8.62 9.48
12:33 2 26.6 38 69,061 0 0 1.48 25.82 90.41 8.53 2.86 9.54 10.5
12:32 2 26.6 39 69,078 0 0 1.48 13.3 72.4 8.38 3.71 9.47 10.41
12:31 2 26.6 39 69,072 0 0 1.49 16.68 89.78 7.97 2.86 8.7 9.57
12:30 2 26.5 40 69,063 0 0 1.51 13.42 73.05 7.57 2.86 8.65 9.51
12:29 2 26.5 39 69,051 0 0 1.45 15.52 79.19 9.3 4.57 10.25 11.28
12:28 2 26.5 38 69,031 0 0 1.48 16.78 88.69 8.38 2.86 7.97 8.77
12:27 2 26.4 40 69,039 0 0 1.47 12.11 79.81 8.24 4.57 10.18 11.2
12:26 2 26.4 38 69,049 0 0 1.38 13.98 80.16 8.53 2.86 8.73 9.61
12:25 2 26.4 40 69,033 0 0 1.51 13.49 71.39 8.42 2.86 7.8 8.58
12:24 2 26.4 38 69,041 0 0 1.48 15.71 94.94 9.48 2.86 8.73 9.61
12:23 2 26.4 39 69,027 0 0 1.42 14.87 76.8 9.25 2 7.9 8.69
12:22 2 26.4 39 69,004 0 0 1.5 14.13 103.36 8.35 2 7.92 8.71
12:20 2 26.4 38 69,004 0 0 1.43 21.15 93 8.3 2.86 8.73 9.6
12:19 2 26.4 38 69,006 0 0 1.49 12.64 74.53 8.06 2.86 9.52 10.47